Historyczne dane pomiarowe

Dodano dane terminowe – wersja testowa.

Dane z okresu 1951-2019

Wersja bazy: 1.34 [2019-03-16, lista zmian], aktualizacja planowana na 2019-04-15

Dane meteo z obszaru Polski uzyskane na podstawie danych udostępnionych przez Instytut Meteorologii i Gospodarki Wodnej – Państwowy Instytut Badawczy.

 

Wybierz Datę:    

       

TemperaturaWilgotnośćWiatrCiśnienieOpadyŚniegCzas trwania zjawisk
 Stacja t tx tn tng RH VA  wxwx mslp ppp RRR   cm mm wxwxwxwxwxwxwx
1987-08-14 13.4 19.3 5.8--- 6.3 3.3---- 4.3------------
1987-08-13 13.2 18.5 5.4--- 4.0 3.0---- 0.0------------
1987-08-12 12.1 17.4 6.9--- 3.3 2.7---- 0.0------------
1987-08-11 12.7 15.5 11.5--- 8.0 3.7---- 5.0------------
1987-08-10 14.5 19.0 12.2--- 6.3 4.3---- 0.2------------
1987-08-09 17.2 22.6 10.5--- 3.0 3.7---- 1.4------------
1987-08-08 13.6 20.0 8.5--- 3.7 3.0---- 0.0------------
1987-08-07 10.1 16.6 5.4--- 5.7 2.3---- 4.8------------
1987-08-06 9.7 15.0 7.4--- 8.0 3.3---- 2.3------------
1987-08-05 11.4 17.5 6.4--- 6.7 2.7---- 0.5------------
1987-08-04 14.6 18.5 11.4--- 8.0 3.0---- 1.7------------
1987-08-03 13.9 19.5 8.5--- 4.0 2.3---- 0.0------------
1987-08-02 13.8 15.5 11.5--- 6.7 2.7---- 6.9------------
1987-08-01 14.8 21.0 8.5--- 8.0 2.7---- 2.8------------
1987-07-31 14.5 20.0 13.8--- 8.0 2.3---- 3.7------------
1987-07-30 18.4 24.0 11.6--- 4.0 3.3---- 4.8------------
1987-07-29 14.3 20.0 9.8--- 6.7 2.7---- 0.0------------
1987-07-28 12.9 15.0 11.5--- 8.0 4.7---- 3.3------------
1987-07-27 11.9 15.5 6.9--- 8.0 4.3---- 1.3------------
1987-07-26 11.9 16.0 9.4--- 8.0 2.3---- 8.0------------
1987-07-25 18.2 24.0 14.0--- 6.3 2.3---- 1.0------------
1987-07-24 19.5 26.5 15.5--- 5.7 2.3---- 0.3------------
1987-07-23 19.4 27.0 10.5--- 5.3 1.0---- 0.0------------
1987-07-22 18.7 22.4 16.5--- 6.3 3.0---- 0.0------------
1987-07-21 17.4 24.0 10.0--- 1.3 1.7---- 5.3------------
1987-07-20 18.9 21.8 17.0--- 3.7 4.7---- 0.0------------
1987-07-19 21.2 26.5 19.3--- 3.0 5.0---- 19.4------------
1987-07-18 22.3 29.2 16.3--- 3.7 4.0---- 0.0------------
1987-07-17 20.0 28.0 13.5--- 6.3 2.7---- 10.8------------
1987-07-16 18.2 26.5 7.6--- 0.0 3.0---- 0.8------------
1987-07-15 16.1 22.5 4.9--- 0.0 4.0---- 0.0------------
1987-07-14 14.7 20.5 7.3--- 0.0 3.0---- 0.0------------
1987-07-13 16.8 22.5 12.5--- 1.3 3.3---- 0.0------------
1987-07-12 19.6 27.5 12.8--- 2.7 4.7---- 7.8------------
1987-07-11 15.2 23.2 6.9--- 1.3 2.7---- 0.0------------
1987-07-10 13.8 18.4 8.6--- 3.7 4.0---- 0.0------------
1987-07-09 16.8 22.5 13.4--- 8.0 3.7---- 6.4------------
1987-07-08 20.8 27.5 9.5--- 0.3 4.0---- 0.5------------
1987-07-07 17.9 25.2 6.4--- 0.0 2.3---- 0.0------------
1987-07-06 17.3 23.5 8.0--- 0.0 2.7---- 0.0------------
1987-07-05 15.6 20.4 11.5--- 3.0 2.7---- 0.0------------
1987-07-04 17.9 23.6 12.2--- 6.7 1.7---- 0.0------------
1987-07-03 18.2 22.6 15.0--- 8.0 1.0---- 0.0------------
1987-07-02 17.6 23.5 15.9--- 8.0 1.7---- 1.4------------
1987-07-01 23.3 29.5 16.5--- 1.3 3.7---- 0.0------------
1987-06-30 22.0 28.8 14.0--- 0.0 2.3---- 0.0------------
1987-06-29 20.3 25.5 12.6--- 2.7 2.3---- 0.0------------
1987-06-28 18.2 24.0 9.8--- 5.0 2.7---- 0.0------------
1987-06-27 17.0 22.8 14.5--- 4.0 1.0---- 0.0------------
1987-06-26 16.3 23.6 8.0--- 4.0 2.3---- 9.0------------
1987-06-25 14.5 17.5 12.5--- 6.7 2.3---- 0.0------------
1987-06-24 15.5 20.5 11.5--- 2.3 3.7---- 0.8------------
1987-06-23 15.3 20.5 12.9--- 8.0 2.0---- 7.0------------
1987-06-22 13.7 22.2 10.5--- 6.7 2.3---- 16.0------------
1987-06-21 18.1 24.2 7.1--- 2.7 2.3---- 0.0------------
1987-06-20 14.3 21.0 5.5--- 3.7 2.7---- 0.0------------
1987-06-19 12.0 17.0 5.9--- 3.3 3.7---- 0.0------------
1987-06-18 9.6 14.6 4.4--- 6.7 5.3---- 0.1------------
1987-06-17 11.6 14.5 7.4--- 6.7 3.0---- 0.0------------
1987-06-16 13.9 24.0 10.2--- 8.0 4.3---- 1.6------------
414.3 ms

 

Źródłem pochodzenia danych jest Instytut Meteorologii i Gospodarki Wodnej – Państwowy Instytut Badawczy. Dane Instytutu Meteorologii i Gospodarki Wodnej – Państwowego Instytutu Badawczego zostały przetworzone.

Dane źródłowe można odnaleźć na stronie https://dane.imgw.pl